KSLE/SLE METAR and TAF weather

Enter ICAO airport designator
Station Type Date Time Source
KSLE METAR 2021/10/22 20:03 UTC NOAA

KSLE 222003Z 19009KT 5SM BR BKN013 BKN039 BKN065 14/12 A2983 RMK AO2 RAE1958 P0000 T01390117


Station Type Date Time Source
KSLE Decoded METAR 2021/10/22 20:03 UTC NOAA

SALEM MCNARY FIELD, OR, United States (KSLE) 44-54N 123-00W 59M
Oct 22, 2021 - 04:03 PM EDT / 2021.10.22 2003 UTC
Wind: from the S (190 degrees) at 10 MPH (9 KT):0
Visibility: 5 mile(s):0
Sky conditions: mostly cloudy
Weather: mist
Precipitation last hour: A trace
Temperature: 57.0 F (13.9 C)
Dew Point: 53.1 F (11.7 C)
Relative Humidity: 86%
Pressure (altimeter): 29.83 in. Hg (1010 hPa)
ob: KSLE 222003Z 19009KT 5SM BR BKN013 BKN039 BKN065 14/12 A2983 RMK AO2 RAE1958 P0000 T01390117
cycle: 20

Station Type Date Time Source
KSLE TAF 2021/10/22 18:45 UTC NOAA

TAF KSLE 221743Z 2218/2318 17008KT P6SM -SHRA BKN045 OVC070
TEMPO 2218/2222 2SM RA BR SCT012 BKN030
FM222200 17009KT P6SM VCSH SCT035 BKN050 OVC070
FM230300 17009KT P6SM BKN060 OVC090
FM230600 18009G18KT P6SM -RA OVC050
FM231500 21009KT P6SM -RA BKN050

Example: see airport list